Terminal Aerodrome Forecast
Issued by NWS La Crosse, WI

Home | Current Version | Previous Version | Text Only | Print | Product List | Glossary On
Versions: 1 2 3 4 5 6 7 8 9 10 11 12 13 14 15 16 17 18 19 20 21 22 23 24 25 26
376
FTUS43 KARX 280532
TAFLSE
TAF
KLSE 280532Z 2806/0106 15006KT P6SM -RA BKN050 OVC100
     FM280900 15005KT 4SM BR VCSH OVC035
     FM281400 VRB03KT 2SM -RA BR OVC010
     FM281700 VRB03KT 6SM BR OVC008
     FM010000 34006KT P6SM OVC008=

USA.gov is the U.S. government's official web portal to all federal, state and local government web resources and services.